sensor_id;sensor_type;location;lat;lon;timestamp;P1;durP1;ratioP1;P2;durP2;ratioP2
58992;SDS011;44782;0.000;0.000;2023-03-14T00:00:37;3.03;;;1.57;;
58992;SDS011;44782;0.000;0.000;2023-03-14T00:02:53;3.00;;;1.70;;
58992;SDS011;44782;0.000;0.000;2023-03-14T00:05:09;3.07;;;1.80;;
58992;SDS011;44782;0.000;0.000;2023-03-14T00:07:25;3.27;;;1.97;;
58992;SDS011;44782;0.000;0.000;2023-03-14T00:09:40;2.17;;;1.77;;
58992;SDS011;44782;0.000;0.000;2023-03-14T00:11:56;2.47;;;1.67;;
58992;SDS011;44782;0.000;0.000;2023-03-14T00:14:12;2.80;;;1.50;;
58992;SDS011;44782;0.000;0.000;2023-03-14T00:16:28;2.67;;;1.60;;
58992;SDS011;44782;0.000;0.000;2023-03-14T00:18:43;2.30;;;1.43;;
58992;SDS011;44782;0.000;0.000;2023-03-14T00:20:59;2.20;;;1.40;;
58992;SDS011;44782;0.000;0.000;2023-03-14T00:23:15;2.50;;;1.70;;
58992;SDS011;44782;0.000;0.000;2023-03-14T00:25:31;2.43;;;1.63;;
58992;SDS011;44782;0.000;0.000;2023-03-14T00:27:47;2.60;;;1.60;;
58992;SDS011;44782;0.000;0.000;2023-03-14T00:30:06;2.23;;;1.60;;
58992;SDS011;44782;0.000;0.000;2023-03-14T00:32:23;2.10;;;1.70;;
58992;SDS011;44782;0.000;0.000;2023-03-14T00:34:38;2.33;;;1.60;;
58992;SDS011;44782;0.000;0.000;2023-03-14T00:36:54;2.03;;;1.53;;
58992;SDS011;44782;0.000;0.000;2023-03-14T00:39:10;2.80;;;1.60;;
58992;SDS011;44782;0.000;0.000;2023-03-14T00:41:26;2.40;;;1.60;;
58992;SDS011;44782;0.000;0.000;2023-03-14T00:43:41;2.57;;;1.60;;
58992;SDS011;44782;0.000;0.000;2023-03-14T00:45:57;1.57;;;1.30;;
58992;SDS011;44782;0.000;0.000;2023-03-14T00:48:13;1.93;;;1.30;;
58992;SDS011;44782;0.000;0.000;2023-03-14T00:50:29;1.93;;;1.40;;
58992;SDS011;44782;0.000;0.000;2023-03-14T00:52:44;2.20;;;1.40;;
58992;SDS011;44782;0.000;0.000;2023-03-14T00:55:03;2.20;;;1.60;;
58992;SDS011;44782;0.000;0.000;2023-03-14T00:57:19;2.00;;;1.40;;
58992;SDS011;44782;0.000;0.000;2023-03-14T00:59:34;2.10;;;1.50;;
58992;SDS011;44782;0.000;0.000;2023-03-14T01:01:50;2.63;;;1.60;;
58992;SDS011;44782;0.000;0.000;2023-03-14T01:04:06;1.87;;;1.60;;
58992;SDS011;44782;0.000;0.000;2023-03-14T01:06:23;2.13;;;1.47;;
58992;SDS011;44782;0.000;0.000;2023-03-14T01:08:40;1.87;;;1.30;;
58992;SDS011;44782;0.000;0.000;2023-03-14T01:10:56;2.93;;;1.40;;
58992;SDS011;44782;0.000;0.000;2023-03-14T01:13:11;2.03;;;1.60;;
58992;SDS011;44782;0.000;0.000;2023-03-14T01:15:27;2.07;;;1.40;;
58992;SDS011;44782;0.000;0.000;2023-03-14T01:17:42;1.70;;;1.30;;
58992;SDS011;44782;0.000;0.000;2023-03-14T01:19:59;2.27;;;1.50;;
58992;SDS011;44782;0.000;0.000;2023-03-14T01:22:15;1.53;;;1.40;;
58992;SDS011;44782;0.000;0.000;2023-03-14T01:24:30;2.00;;;1.40;;
58992;SDS011;44782;0.000;0.000;2023-03-14T01:26:46;1.57;;;1.30;;
58992;SDS011;44782;0.000;0.000;2023-03-14T01:29:02;2.50;;;1.43;;
58992;SDS011;44782;0.000;0.000;2023-03-14T01:31:19;2.13;;;1.47;;
58992;SDS011;44782;0.000;0.000;2023-03-14T01:33:34;1.60;;;1.20;;
58992;SDS011;44782;0.000;0.000;2023-03-14T01:35:50;2.23;;;1.30;;
58992;SDS011;44782;0.000;0.000;2023-03-14T01:38:06;2.03;;;1.53;;
58992;SDS011;44782;0.000;0.000;2023-03-14T01:40:22;2.67;;;1.30;;
58992;SDS011;44782;0.000;0.000;2023-03-14T01:42:37;1.70;;;1.23;;
58992;SDS011;44782;0.000;0.000;2023-03-14T01:44:54;2.03;;;1.40;;
58992;SDS011;44782;0.000;0.000;2023-03-14T01:47:12;2.23;;;1.40;;
58992;SDS011;44782;0.000;0.000;2023-03-14T01:49:28;1.77;;;1.30;;
58992;SDS011;44782;0.000;0.000;2023-03-14T01:51:52;3.70;;;1.40;;
58992;SDS011;44782;0.000;0.000;2023-03-14T01:56:29;1.53;;;1.23;;
58992;SDS011;44782;0.000;0.000;2023-03-14T01:58:46;1.67;;;1.23;;
58992;SDS011;44782;0.000;0.000;2023-03-14T02:01:05;1.77;;;1.30;;
58992;SDS011;44782;0.000;0.000;2023-03-14T02:03:23;1.50;;;1.30;;
58992;SDS011;44782;0.000;0.000;2023-03-14T02:05:42;1.50;;;1.30;;
58992;SDS011;44782;0.000;0.000;2023-03-14T02:10:26;3.03;;;1.50;;
58992;SDS011;44782;0.000;0.000;2023-03-14T02:12:44;1.50;;;1.30;;
58992;SDS011;44782;0.000;0.000;2023-03-14T02:15:04;1.57;;;1.30;;
58992;SDS011;44782;0.000;0.000;2023-03-14T02:17:20;1.47;;;1.10;;
58992;SDS011;44782;0.000;0.000;2023-03-14T02:22:09;1.70;;;1.20;;
58992;SDS011;44782;0.000;0.000;2023-03-14T02:24:31;1.33;;;1.20;;
58992;SDS011;44782;0.000;0.000;2023-03-14T02:27:07;1.37;;;1.27;;
58992;SDS011;44782;0.000;0.000;2023-03-14T02:29:26;1.43;;;1.20;;
58992;SDS011;44782;0.000;0.000;2023-03-14T02:31:43;1.70;;;1.23;;
58992;SDS011;44782;0.000;0.000;2023-03-14T02:33:58;1.30;;;1.20;;
58992;SDS011;44782;0.000;0.000;2023-03-14T02:36:15;1.43;;;1.23;;
58992;SDS011;44782;0.000;0.000;2023-03-14T02:41:04;1.60;;;1.30;;
58992;SDS011;44782;0.000;0.000;2023-03-14T02:43:20;1.20;;;1.10;;
58992;SDS011;44782;0.000;0.000;2023-03-14T02:45:43;1.33;;;1.20;;
58992;SDS011;44782;0.000;0.000;2023-03-14T02:48:01;1.83;;;1.40;;
58992;SDS011;44782;0.000;0.000;2023-03-14T02:50:22;2.97;;;1.40;;
58992;SDS011;44782;0.000;0.000;2023-03-14T02:52:41;1.47;;;1.37;;
58992;SDS011;44782;0.000;0.000;2023-03-14T02:54:57;1.47;;;1.20;;
58992;SDS011;44782;0.000;0.000;2023-03-14T02:57:12;1.50;;;1.17;;
58992;SDS011;44782;0.000;0.000;2023-03-14T02:59:28;1.77;;;1.23;;
58992;SDS011;44782;0.000;0.000;2023-03-14T03:01:43;1.87;;;1.20;;
58992;SDS011;44782;0.000;0.000;2023-03-14T03:03:59;1.50;;;1.23;;
58992;SDS011;44782;0.000;0.000;2023-03-14T03:06:15;1.30;;;1.20;;
58992;SDS011;44782;0.000;0.000;2023-03-14T03:08:31;1.87;;;1.20;;
58992;SDS011;44782;0.000;0.000;2023-03-14T03:10:46;1.50;;;1.20;;
58992;SDS011;44782;0.000;0.000;2023-03-14T03:13:02;1.27;;;1.10;;
58992;SDS011;44782;0.000;0.000;2023-03-14T03:15:18;1.53;;;1.10;;
58992;SDS011;44782;0.000;0.000;2023-03-14T03:17:33;1.23;;;1.13;;
58992;SDS011;44782;0.000;0.000;2023-03-14T03:19:49;1.13;;;1.03;;
58992;SDS011;44782;0.000;0.000;2023-03-14T03:22:05;2.07;;;1.40;;
58992;SDS011;44782;0.000;0.000;2023-03-14T03:24:20;1.43;;;1.20;;
58992;SDS011;44782;0.000;0.000;2023-03-14T03:26:36;1.33;;;1.10;;
58992;SDS011;44782;0.000;0.000;2023-03-14T03:28:52;1.20;;;1.10;;
58992;SDS011;44782;0.000;0.000;2023-03-14T03:31:08;1.90;;;1.30;;
58992;SDS011;44782;0.000;0.000;2023-03-14T03:33:25;1.10;;;1.00;;
58992;SDS011;44782;0.000;0.000;2023-03-14T03:35:41;1.30;;;1.20;;
58992;SDS011;44782;0.000;0.000;2023-03-14T03:38:01;1.27;;;1.17;;
58992;SDS011;44782;0.000;0.000;2023-03-14T03:40:17;1.37;;;1.27;;
58992;SDS011;44782;0.000;0.000;2023-03-14T03:42:33;1.30;;;1.20;;
58992;SDS011;44782;0.000;0.000;2023-03-14T03:44:49;1.23;;;1.13;;
58992;SDS011;44782;0.000;0.000;2023-03-14T03:47:05;1.70;;;1.17;;
58992;SDS011;44782;0.000;0.000;2023-03-14T03:49:21;1.30;;;1.20;;
58992;SDS011;44782;0.000;0.000;2023-03-14T03:51:36;1.40;;;1.30;;
58992;SDS011;44782;0.000;0.000;2023-03-14T03:53:52;1.73;;;1.30;;
58992;SDS011;44782;0.000;0.000;2023-03-14T03:56:08;1.30;;;1.17;;
58992;SDS011;44782;0.000;0.000;2023-03-14T03:58:24;1.37;;;1.20;;
58992;SDS011;44782;0.000;0.000;2023-03-14T04:00:40;1.30;;;1.13;;
58992;SDS011;44782;0.000;0.000;2023-03-14T04:02:56;1.27;;;1.10;;
58992;SDS011;44782;0.000;0.000;2023-03-14T04:05:11;1.20;;;1.10;;
58992;SDS011;44782;0.000;0.000;2023-03-14T04:07:27;1.30;;;1.20;;
58992;SDS011;44782;0.000;0.000;2023-03-14T04:09:43;1.20;;;1.10;;
58992;SDS011;44782;0.000;0.000;2023-03-14T04:11:58;1.00;;;0.90;;
58992;SDS011;44782;0.000;0.000;2023-03-14T04:14:14;1.43;;;1.10;;
58992;SDS011;44782;0.000;0.000;2023-03-14T04:16:30;1.37;;;1.20;;
58992;SDS011;44782;0.000;0.000;2023-03-14T04:18:49;1.10;;;1.00;;
58992;SDS011;44782;0.000;0.000;2023-03-14T04:21:04;1.30;;;1.13;;
58992;SDS011;44782;0.000;0.000;2023-03-14T04:23:21;1.20;;;1.10;;
58992;SDS011;44782;0.000;0.000;2023-03-14T04:25:39;1.20;;;1.10;;
58992;SDS011;44782;0.000;0.000;2023-03-14T04:27:54;1.60;;;1.00;;
58992;SDS011;44782;0.000;0.000;2023-03-14T04:30:10;1.30;;;1.13;;
58992;SDS011;44782;0.000;0.000;2023-03-14T04:32:26;1.00;;;1.00;;
58992;SDS011;44782;0.000;0.000;2023-03-14T04:34:41;1.00;;;1.00;;
58992;SDS011;44782;0.000;0.000;2023-03-14T04:36:57;1.10;;;1.10;;
58992;SDS011;44782;0.000;0.000;2023-03-14T04:39:13;1.10;;;1.00;;
58992;SDS011;44782;0.000;0.000;2023-03-14T04:41:28;1.30;;;1.10;;
58992;SDS011;44782;0.000;0.000;2023-03-14T04:43:44;1.30;;;1.20;;
58992;SDS011;44782;0.000;0.000;2023-03-14T04:45:59;1.10;;;1.00;;
58992;SDS011;44782;0.000;0.000;2023-03-14T04:48:15;1.07;;;1.00;;
58992;SDS011;44782;0.000;0.000;2023-03-14T04:50:31;1.30;;;1.20;;
58992;SDS011;44782;0.000;0.000;2023-03-14T04:52:46;1.53;;;1.20;;
58992;SDS011;44782;0.000;0.000;2023-03-14T04:55:02;1.00;;;1.00;;
58992;SDS011;44782;0.000;0.000;2023-03-14T04:57:18;0.90;;;0.90;;
58992;SDS011;44782;0.000;0.000;2023-03-14T04:59:33;0.90;;;0.90;;
58992;SDS011;44782;0.000;0.000;2023-03-14T05:01:49;1.37;;;1.00;;
58992;SDS011;44782;0.000;0.000;2023-03-14T05:04:05;1.13;;;1.00;;
58992;SDS011;44782;0.000;0.000;2023-03-14T05:06:20;1.10;;;1.00;;
58992;SDS011;44782;0.000;0.000;2023-03-14T05:08:36;0.90;;;0.90;;
58992;SDS011;44782;0.000;0.000;2023-03-14T05:10:52;1.17;;;1.07;;
58992;SDS011;44782;0.000;0.000;2023-03-14T05:13:09;1.10;;;1.00;;
58992;SDS011;44782;0.000;0.000;2023-03-14T05:15:25;1.07;;;1.00;;
58992;SDS011;44782;0.000;0.000;2023-03-14T05:17:40;0.90;;;0.90;;
58992;SDS011;44782;0.000;0.000;2023-03-14T05:19:56;0.90;;;0.90;;
58992;SDS011;44782;0.000;0.000;2023-03-14T05:22:12;0.87;;;0.87;;
58992;SDS011;44782;0.000;0.000;2023-03-14T05:24:27;1.00;;;0.90;;
58992;SDS011;44782;0.000;0.000;2023-03-14T05:26:43;0.87;;;0.87;;
58992;SDS011;44782;0.000;0.000;2023-03-14T05:28:59;0.90;;;0.90;;
58992;SDS011;44782;0.000;0.000;2023-03-14T05:31:14;1.00;;;0.90;;
58992;SDS011;44782;0.000;0.000;2023-03-14T05:33:30;1.00;;;1.00;;
58992;SDS011;44782;0.000;0.000;2023-03-14T05:35:46;1.23;;;1.10;;
58992;SDS011;44782;0.000;0.000;2023-03-14T05:38:01;1.27;;;0.90;;
58992;SDS011;44782;0.000;0.000;2023-03-14T05:40:17;0.90;;;0.90;;
58992;SDS011;44782;0.000;0.000;2023-03-14T05:42:33;0.87;;;0.87;;
58992;SDS011;44782;0.000;0.000;2023-03-14T05:44:48;1.03;;;0.90;;
58992;SDS011;44782;0.000;0.000;2023-03-14T05:47:04;0.87;;;0.87;;
58992;SDS011;44782;0.000;0.000;2023-03-14T05:49:20;0.80;;;0.80;;
58992;SDS011;44782;0.000;0.000;2023-03-14T05:51:35;0.80;;;0.80;;
58992;SDS011;44782;0.000;0.000;2023-03-14T05:53:51;1.00;;;0.90;;
58992;SDS011;44782;0.000;0.000;2023-03-14T05:56:07;0.90;;;0.90;;
58992;SDS011;44782;0.000;0.000;2023-03-14T05:58:23;1.23;;;0.90;;
58992;SDS011;44782;0.000;0.000;2023-03-14T06:00:39;0.90;;;0.90;;
58992;SDS011;44782;0.000;0.000;2023-03-14T06:02:54;1.20;;;1.00;;
58992;SDS011;44782;0.000;0.000;2023-03-14T06:05:10;0.97;;;0.90;;
58992;SDS011;44782;0.000;0.000;2023-03-14T06:07:26;0.80;;;0.80;;
58992;SDS011;44782;0.000;0.000;2023-03-14T06:09:41;0.83;;;0.83;;
58992;SDS011;44782;0.000;0.000;2023-03-14T06:11:57;0.90;;;0.90;;
58992;SDS011;44782;0.000;0.000;2023-03-14T06:14:13;0.90;;;0.90;;
58992;SDS011;44782;0.000;0.000;2023-03-14T06:16:28;1.20;;;1.00;;
58992;SDS011;44782;0.000;0.000;2023-03-14T06:18:44;0.70;;;0.70;;
58992;SDS011;44782;0.000;0.000;2023-03-14T06:21:01;0.80;;;0.80;;
58992;SDS011;44782;0.000;0.000;2023-03-14T06:23:17;1.43;;;1.10;;
58992;SDS011;44782;0.000;0.000;2023-03-14T06:25:33;0.87;;;0.87;;
58992;SDS011;44782;0.000;0.000;2023-03-14T06:27:49;1.27;;;1.00;;
58992;SDS011;44782;0.000;0.000;2023-03-14T06:30:05;1.00;;;0.93;;
58992;SDS011;44782;0.000;0.000;2023-03-14T06:32:21;0.77;;;0.77;;
58992;SDS011;44782;0.000;0.000;2023-03-14T06:34:37;1.10;;;0.90;;
58992;SDS011;44782;0.000;0.000;2023-03-14T06:36:53;0.80;;;0.80;;
58992;SDS011;44782;0.000;0.000;2023-03-14T06:39:09;1.20;;;1.00;;
58992;SDS011;44782;0.000;0.000;2023-03-14T06:41:24;0.80;;;0.80;;
58992;SDS011;44782;0.000;0.000;2023-03-14T06:43:41;1.53;;;1.00;;
58992;SDS011;44782;0.000;0.000;2023-03-14T06:45:57;0.90;;;0.90;;
58992;SDS011;44782;0.000;0.000;2023-03-14T06:48:12;0.80;;;0.80;;
58992;SDS011;44782;0.000;0.000;2023-03-14T06:50:28;0.93;;;0.90;;
58992;SDS011;44782;0.000;0.000;2023-03-14T06:52:44;1.07;;;0.97;;
58992;SDS011;44782;0.000;0.000;2023-03-14T06:55:02;0.90;;;0.90;;
58992;SDS011;44782;0.000;0.000;2023-03-14T06:57:18;1.70;;;1.10;;
58992;SDS011;44782;0.000;0.000;2023-03-14T06:59:34;1.00;;;0.90;;
58992;SDS011;44782;0.000;0.000;2023-03-14T07:01:50;2.57;;;1.30;;
58992;SDS011;44782;0.000;0.000;2023-03-14T07:04:05;1.43;;;1.03;;
58992;SDS011;44782;0.000;0.000;2023-03-14T07:06:21;1.63;;;1.30;;
58992;SDS011;44782;0.000;0.000;2023-03-14T07:08:37;1.40;;;1.00;;
58992;SDS011;44782;0.000;0.000;2023-03-14T07:10:56;1.93;;;1.10;;
58992;SDS011;44782;0.000;0.000;2023-03-14T07:13:11;1.23;;;1.13;;
58992;SDS011;44782;0.000;0.000;2023-03-14T07:15:28;1.17;;;1.10;;
58992;SDS011;44782;0.000;0.000;2023-03-14T07:17:45;1.73;;;1.20;;
58992;SDS011;44782;0.000;0.000;2023-03-14T07:20:03;1.93;;;1.00;;
58992;SDS011;44782;0.000;0.000;2023-03-14T07:22:19;1.20;;;1.10;;
58992;SDS011;44782;0.000;0.000;2023-03-14T07:24:35;1.10;;;1.00;;
58992;SDS011;44782;0.000;0.000;2023-03-14T07:26:50;1.80;;;1.17;;
58992;SDS011;44782;0.000;0.000;2023-03-14T07:29:06;1.53;;;1.03;;
58992;SDS011;44782;0.000;0.000;2023-03-14T07:31:22;2.63;;;1.33;;
58992;SDS011;44782;0.000;0.000;2023-03-14T07:33:38;1.03;;;1.00;;
58992;SDS011;44782;0.000;0.000;2023-03-14T07:35:53;3.07;;;1.27;;
58992;SDS011;44782;0.000;0.000;2023-03-14T07:38:09;1.50;;;1.20;;
58992;SDS011;44782;0.000;0.000;2023-03-14T07:40:25;1.40;;;1.20;;
58992;SDS011;44782;0.000;0.000;2023-03-14T07:42:41;1.83;;;1.13;;
58992;SDS011;44782;0.000;0.000;2023-03-14T07:44:57;1.67;;;1.13;;
58992;SDS011;44782;0.000;0.000;2023-03-14T07:47:13;1.20;;;1.10;;
58992;SDS011;44782;0.000;0.000;2023-03-14T07:49:29;1.27;;;1.10;;
58992;SDS011;44782;0.000;0.000;2023-03-14T07:51:47;2.63;;;1.27;;
58992;SDS011;44782;0.000;0.000;2023-03-14T07:54:03;1.83;;;1.33;;
58992;SDS011;44782;0.000;0.000;2023-03-14T07:56:19;2.57;;;1.30;;
58992;SDS011;44782;0.000;0.000;2023-03-14T07:58:34;2.07;;;1.40;;
58992;SDS011;44782;0.000;0.000;2023-03-14T08:00:51;2.10;;;1.50;;
58992;SDS011;44782;0.000;0.000;2023-03-14T08:03:06;2.47;;;1.20;;
58992;SDS011;44782;0.000;0.000;2023-03-14T08:05:22;2.07;;;1.30;;
58992;SDS011;44782;0.000;0.000;2023-03-14T08:07:38;1.60;;;1.30;;
58992;SDS011;44782;0.000;0.000;2023-03-14T08:09:53;1.70;;;1.30;;
58992;SDS011;44782;0.000;0.000;2023-03-14T08:12:09;1.90;;;1.33;;
58992;SDS011;44782;0.000;0.000;2023-03-14T08:14:25;1.80;;;1.30;;
58992;SDS011;44782;0.000;0.000;2023-03-14T08:16:41;2.03;;;1.30;;
58992;SDS011;44782;0.000;0.000;2023-03-14T08:18:56;2.20;;;1.30;;
58992;SDS011;44782;0.000;0.000;2023-03-14T08:21:12;2.20;;;1.37;;
58992;SDS011;44782;0.000;0.000;2023-03-14T08:23:28;2.30;;;1.50;;
58992;SDS011;44782;0.000;0.000;2023-03-14T08:25:44;2.67;;;1.70;;
58992;SDS011;44782;0.000;0.000;2023-03-14T08:28:00;3.00;;;1.67;;
58992;SDS011;44782;0.000;0.000;2023-03-14T08:30:16;2.13;;;1.40;;
58992;SDS011;44782;0.000;0.000;2023-03-14T08:32:33;2.23;;;1.20;;
58992;SDS011;44782;0.000;0.000;2023-03-14T08:34:49;2.33;;;1.37;;
58992;SDS011;44782;0.000;0.000;2023-03-14T08:37:05;2.13;;;1.50;;
58992;SDS011;44782;0.000;0.000;2023-03-14T08:39:21;2.50;;;1.43;;
58992;SDS011;44782;0.000;0.000;2023-03-14T08:41:36;1.83;;;1.30;;
58992;SDS011;44782;0.000;0.000;2023-03-14T08:43:55;2.30;;;1.40;;
58992;SDS011;44782;0.000;0.000;2023-03-14T08:46:10;2.60;;;1.60;;
58992;SDS011;44782;0.000;0.000;2023-03-14T08:48:26;2.83;;;1.43;;
58992;SDS011;44782;0.000;0.000;2023-03-14T08:50:44;2.83;;;1.53;;
58992;SDS011;44782;0.000;0.000;2023-03-14T08:53:00;1.60;;;1.33;;
58992;SDS011;44782;0.000;0.000;2023-03-14T08:55:16;2.33;;;1.23;;
58992;SDS011;44782;0.000;0.000;2023-03-14T08:57:31;1.80;;;1.43;;
58992;SDS011;44782;0.000;0.000;2023-03-14T08:59:47;2.10;;;1.50;;
58992;SDS011;44782;0.000;0.000;2023-03-14T09:02:03;2.63;;;1.30;;
58992;SDS011;44782;0.000;0.000;2023-03-14T09:04:19;3.07;;;1.47;;
58992;SDS011;44782;0.000;0.000;2023-03-14T09:06:34;2.33;;;1.40;;
58992;SDS011;44782;0.000;0.000;2023-03-14T09:08:50;3.20;;;1.60;;
58992;SDS011;44782;0.000;0.000;2023-03-14T09:11:07;2.50;;;1.47;;
58992;SDS011;44782;0.000;0.000;2023-03-14T09:13:23;2.33;;;1.43;;
58992;SDS011;44782;0.000;0.000;2023-03-14T09:15:39;3.00;;;1.67;;
58992;SDS011;44782;0.000;0.000;2023-03-14T09:17:57;2.57;;;1.40;;
58992;SDS011;44782;0.000;0.000;2023-03-14T09:20:13;1.80;;;1.43;;
58992;SDS011;44782;0.000;0.000;2023-03-14T09:22:29;2.27;;;1.50;;
58992;SDS011;44782;0.000;0.000;2023-03-14T09:24:44;2.80;;;1.63;;
58992;SDS011;44782;0.000;0.000;2023-03-14T09:27:00;3.20;;;1.50;;
58992;SDS011;44782;0.000;0.000;2023-03-14T09:29:16;1.97;;;1.47;;
58992;SDS011;44782;0.000;0.000;2023-03-14T09:31:31;2.00;;;1.30;;
58992;SDS011;44782;0.000;0.000;2023-03-14T09:33:47;2.10;;;1.43;;
58992;SDS011;44782;0.000;0.000;2023-03-14T09:36:04;2.23;;;1.57;;
58992;SDS011;44782;0.000;0.000;2023-03-14T09:38:20;2.67;;;1.50;;
58992;SDS011;44782;0.000;0.000;2023-03-14T09:40:36;2.13;;;1.43;;
58992;SDS011;44782;0.000;0.000;2023-03-14T09:42:53;2.20;;;1.37;;
58992;SDS011;44782;0.000;0.000;2023-03-14T09:45:15;1.33;;;1.10;;
58992;SDS011;44782;0.000;0.000;2023-03-14T09:47:52;2.03;;;1.30;;
58992;SDS011;44782;0.000;0.000;2023-03-14T09:50:13;1.43;;;1.20;;
58992;SDS011;44782;0.000;0.000;2023-03-14T09:52:35;2.33;;;1.40;;
58992;SDS011;44782;0.000;0.000;2023-03-14T09:54:54;2.27;;;1.27;;
58992;SDS011;44782;0.000;0.000;2023-03-14T09:57:20;2.37;;;1.40;;
58992;SDS011;44782;0.000;0.000;2023-03-14T09:59:39;2.23;;;1.40;;
58992;SDS011;44782;0.000;0.000;2023-03-14T10:02:00;1.80;;;1.27;;
58992;SDS011;44782;0.000;0.000;2023-03-14T10:04:17;2.00;;;1.23;;
58992;SDS011;44782;0.000;0.000;2023-03-14T10:06:38;1.53;;;1.20;;
58992;SDS011;44782;0.000;0.000;2023-03-14T10:08:53;2.43;;;1.20;;
58992;SDS011;44782;0.000;0.000;2023-03-14T10:11:15;1.40;;;1.20;;
58992;SDS011;44782;0.000;0.000;2023-03-14T10:13:32;2.47;;;1.33;;
58992;SDS011;44782;0.000;0.000;2023-03-14T10:15:50;2.17;;;1.20;;
58992;SDS011;44782;0.000;0.000;2023-03-14T10:18:11;2.90;;;1.30;;
58992;SDS011;44782;0.000;0.000;2023-03-14T10:22:49;1.77;;;1.33;;
58992;SDS011;44782;0.000;0.000;2023-03-14T10:25:06;2.60;;;1.30;;
58992;SDS011;44782;0.000;0.000;2023-03-14T10:27:43;2.27;;;1.30;;
58992;SDS011;44782;0.000;0.000;2023-03-14T10:30:00;1.43;;;1.23;;
58992;SDS011;44782;0.000;0.000;2023-03-14T10:32:18;2.17;;;1.10;;
58992;SDS011;44782;0.000;0.000;2023-03-14T10:34:36;1.63;;;1.20;;
58992;SDS011;44782;0.000;0.000;2023-03-14T10:36:53;1.77;;;1.20;;
58992;SDS011;44782;0.000;0.000;2023-03-14T10:41:33;2.33;;;1.23;;
58992;SDS011;44782;0.000;0.000;2023-03-14T10:43:49;2.47;;;1.50;;
58992;SDS011;44782;0.000;0.000;2023-03-14T10:46:17;2.67;;;1.30;;
58992;SDS011;44782;0.000;0.000;2023-03-14T10:48:38;2.00;;;1.30;;
58992;SDS011;44782;0.000;0.000;2023-03-14T10:53:21;1.20;;;1.10;;
58992;SDS011;44782;0.000;0.000;2023-03-14T10:55:41;1.73;;;1.30;;
58992;SDS011;44782;0.000;0.000;2023-03-14T10:57:59;2.17;;;1.40;;
58992;SDS011;44782;0.000;0.000;2023-03-14T11:00:16;1.57;;;1.20;;
58992;SDS011;44782;0.000;0.000;2023-03-14T11:07:44;1.10;;;1.00;;
58992;SDS011;44782;0.000;0.000;2023-03-14T11:15:29;1.60;;;1.43;;
58992;SDS011;44782;0.000;0.000;2023-03-14T11:18:19;2.30;;;1.30;;
58992;SDS011;44782;0.000;0.000;2023-03-14T11:23:41;1.70;;;1.13;;
58992;SDS011;44782;0.000;0.000;2023-03-14T11:28:38;1.63;;;1.20;;
58992;SDS011;44782;0.000;0.000;2023-03-14T11:36:08;1.30;;;1.17;;
58992;SDS011;44782;0.000;0.000;2023-03-14T11:40:52;1.27;;;1.13;;
58992;SDS011;44782;0.000;0.000;2023-03-14T11:43:32;1.93;;;1.23;;
58992;SDS011;44782;0.000;0.000;2023-03-14T11:45:46;1.97;;;1.20;;
58992;SDS011;44782;0.000;0.000;2023-03-14T11:50:35;1.43;;;1.30;;
58992;SDS011;44782;0.000;0.000;2023-03-14T11:52:54;2.30;;;1.20;;
58992;SDS011;44782;0.000;0.000;2023-03-14T11:57:41;1.23;;;1.07;;
58992;SDS011;44782;0.000;0.000;2023-03-14T12:07:19;1.43;;;1.10;;
58992;SDS011;44782;0.000;0.000;2023-03-14T12:09:39;1.23;;;1.10;;
58992;SDS011;44782;0.000;0.000;2023-03-14T12:11:59;1.10;;;1.00;;
58992;SDS011;44782;0.000;0.000;2023-03-14T12:14:24;2.20;;;1.20;;
58992;SDS011;44782;0.000;0.000;2023-03-14T12:16:40;2.17;;;1.50;;
58992;SDS011;44782;0.000;0.000;2023-03-14T12:18:55;1.80;;;1.30;;
58992;SDS011;44782;0.000;0.000;2023-03-14T12:21:11;2.20;;;1.37;;
58992;SDS011;44782;0.000;0.000;2023-03-14T12:23:28;1.77;;;1.10;;
58992;SDS011;44782;0.000;0.000;2023-03-14T12:28:32;2.00;;;1.30;;
58992;SDS011;44782;0.000;0.000;2023-03-14T12:30:47;1.50;;;1.40;;
58992;SDS011;44782;0.000;0.000;2023-03-14T12:37:53;1.47;;;1.27;;
58992;SDS011;44782;0.000;0.000;2023-03-14T12:40:21;1.23;;;1.07;;
58992;SDS011;44782;0.000;0.000;2023-03-14T12:43:02;1.27;;;1.10;;
58992;SDS011;44782;0.000;0.000;2023-03-14T12:45:38;1.60;;;1.00;;
58992;SDS011;44782;0.000;0.000;2023-03-14T12:47:55;1.27;;;1.13;;
58992;SDS011;44782;0.000;0.000;2023-03-14T12:50:13;1.60;;;1.10;;
58992;SDS011;44782;0.000;0.000;2023-03-14T12:52:36;1.20;;;1.10;;
58992;SDS011;44782;0.000;0.000;2023-03-14T12:59:51;1.13;;;1.03;;
58992;SDS011;44782;0.000;0.000;2023-03-14T13:05:02;1.20;;;1.07;;
58992;SDS011;44782;0.000;0.000;2023-03-14T13:09:50;1.43;;;1.13;;
58992;SDS011;44782;0.000;0.000;2023-03-14T13:12:11;1.30;;;1.10;;
58992;SDS011;44782;0.000;0.000;2023-03-14T13:14:30;1.60;;;1.10;;
58992;SDS011;44782;0.000;0.000;2023-03-14T13:16:46;1.20;;;1.10;;
58992;SDS011;44782;0.000;0.000;2023-03-14T13:19:03;1.33;;;1.10;;
58992;SDS011;44782;0.000;0.000;2023-03-14T13:21:26;1.47;;;1.00;;
58992;SDS011;44782;0.000;0.000;2023-03-14T13:24:02;0.87;;;0.83;;
58992;SDS011;44782;0.000;0.000;2023-03-14T13:26:17;1.00;;;0.90;;
58992;SDS011;44782;0.000;0.000;2023-03-14T13:28:33;1.10;;;1.00;;
58992;SDS011;44782;0.000;0.000;2023-03-14T13:30:50;1.77;;;1.20;;
58992;SDS011;44782;0.000;0.000;2023-03-14T13:33:18;1.13;;;1.03;;
58992;SDS011;44782;0.000;0.000;2023-03-14T13:35:45;1.23;;;1.10;;
58992;SDS011;44782;0.000;0.000;2023-03-14T13:38:02;1.47;;;1.33;;
58992;SDS011;44782;0.000;0.000;2023-03-14T13:40:23;2.23;;;1.03;;
58992;SDS011;44782;0.000;0.000;2023-03-14T13:42:41;0.90;;;0.90;;
58992;SDS011;44782;0.000;0.000;2023-03-14T13:44:56;1.00;;;0.90;;
58992;SDS011;44782;0.000;0.000;2023-03-14T13:47:14;1.47;;;1.00;;
58992;SDS011;44782;0.000;0.000;2023-03-14T13:49:32;0.97;;;0.90;;
58992;SDS011;44782;0.000;0.000;2023-03-14T13:51:50;1.10;;;0.90;;
58992;SDS011;44782;0.000;0.000;2023-03-14T13:54:19;1.13;;;1.03;;
58992;SDS011;44782;0.000;0.000;2023-03-14T13:56:36;1.23;;;1.00;;
58992;SDS011;44782;0.000;0.000;2023-03-14T13:58:51;1.10;;;1.00;;
58992;SDS011;44782;0.000;0.000;2023-03-14T14:01:14;0.90;;;0.90;;
58992;SDS011;44782;0.000;0.000;2023-03-14T14:04:07;0.90;;;0.90;;
58992;SDS011;44782;0.000;0.000;2023-03-14T14:08:45;1.63;;;1.10;;
58992;SDS011;44782;0.000;0.000;2023-03-14T14:11:01;1.27;;;1.10;;
58992;SDS011;44782;0.000;0.000;2023-03-14T14:13:19;1.97;;;1.10;;
58992;SDS011;44782;0.000;0.000;2023-03-14T14:15:39;1.43;;;0.97;;
58992;SDS011;44782;0.000;0.000;2023-03-14T14:17:58;1.33;;;1.00;;
58992;SDS011;44782;0.000;0.000;2023-03-14T14:20:34;1.50;;;1.00;;
58992;SDS011;44782;0.000;0.000;2023-03-14T14:23:01;1.20;;;1.10;;
58992;SDS011;44782;0.000;0.000;2023-03-14T14:25:18;1.10;;;1.00;;
58992;SDS011;44782;0.000;0.000;2023-03-14T14:27:37;0.80;;;0.80;;
58992;SDS011;44782;0.000;0.000;2023-03-14T14:30:00;1.30;;;1.00;;
58992;SDS011;44782;0.000;0.000;2023-03-14T14:32:17;1.40;;;1.23;;
58992;SDS011;44782;0.000;0.000;2023-03-14T14:37:04;1.23;;;1.10;;
58992;SDS011;44782;0.000;0.000;2023-03-14T14:39:20;1.03;;;0.90;;
58992;SDS011;44782;0.000;0.000;2023-03-14T14:41:44;1.50;;;1.10;;
58992;SDS011;44782;0.000;0.000;2023-03-14T14:44:03;1.20;;;1.10;;
58992;SDS011;44782;0.000;0.000;2023-03-14T14:46:19;1.20;;;1.10;;
58992;SDS011;44782;0.000;0.000;2023-03-14T14:48:36;1.10;;;1.00;;
58992;SDS011;44782;0.000;0.000;2023-03-14T14:53:36;1.30;;;1.00;;
58992;SDS011;44782;0.000;0.000;2023-03-14T14:55:56;1.20;;;1.10;;
58992;SDS011;44782;0.000;0.000;2023-03-14T14:58:18;1.10;;;1.00;;
58992;SDS011;44782;0.000;0.000;2023-03-14T15:00:49;1.00;;;0.90;;
58992;SDS011;44782;0.000;0.000;2023-03-14T15:03:12;1.10;;;1.00;;
58992;SDS011;44782;0.000;0.000;2023-03-14T15:05:30;1.10;;;1.00;;
58992;SDS011;44782;0.000;0.000;2023-03-14T15:07:50;1.60;;;1.20;;
58992;SDS011;44782;0.000;0.000;2023-03-14T15:10:09;1.00;;;0.93;;
58992;SDS011;44782;0.000;0.000;2023-03-14T15:12:26;1.20;;;1.10;;
58992;SDS011;44782;0.000;0.000;2023-03-14T15:14:41;1.40;;;1.10;;
58992;SDS011;44782;0.000;0.000;2023-03-14T15:16:57;1.40;;;1.10;;
58992;SDS011;44782;0.000;0.000;2023-03-14T15:19:20;1.50;;;1.10;;